sensor_id;sensor_type;location;lat;lon;timestamp;temperature;humidity
16283;DHT22;8249;48.708;9.030;2023-05-13T00:00:52;10.20;99.90
16283;DHT22;8249;48.708;9.030;2023-05-13T00:03:19;10.20;99.90
16283;DHT22;8249;48.708;9.030;2023-05-13T00:05:46;10.10;99.90
16283;DHT22;8249;48.708;9.030;2023-05-13T00:08:12;10.10;99.90
16283;DHT22;8249;48.708;9.030;2023-05-13T00:10:41;10.10;99.90
16283;DHT22;8249;48.708;9.030;2023-05-13T00:13:07;10.10;99.90
16283;DHT22;8249;48.708;9.030;2023-05-13T00:15:34;10.10;99.90
16283;DHT22;8249;48.708;9.030;2023-05-13T00:18:01;10.10;99.90
16283;DHT22;8249;48.708;9.030;2023-05-13T00:20:28;10.10;99.90
16283;DHT22;8249;48.708;9.030;2023-05-13T00:22:55;10.20;99.90
16283;DHT22;8249;48.708;9.030;2023-05-13T00:25:22;10.30;99.90
16283;DHT22;8249;48.708;9.030;2023-05-13T00:27:50;10.40;99.90
16283;DHT22;8249;48.708;9.030;2023-05-13T00:30:17;10.40;99.90
16283;DHT22;8249;48.708;9.030;2023-05-13T00:32:45;10.50;99.90
16283;DHT22;8249;48.708;9.030;2023-05-13T00:35:12;10.60;99.90
16283;DHT22;8249;48.708;9.030;2023-05-13T00:37:39;10.60;99.90
16283;DHT22;8249;48.708;9.030;2023-05-13T00:40:14;10.60;99.90
16283;DHT22;8249;48.708;9.030;2023-05-13T00:42:42;10.60;99.90
16283;DHT22;8249;48.708;9.030;2023-05-13T00:45:11;10.70;99.90
16283;DHT22;8249;48.708;9.030;2023-05-13T00:47:38;10.70;99.90
16283;DHT22;8249;48.708;9.030;2023-05-13T00:50:06;10.70;99.90
16283;DHT22;8249;48.708;9.030;2023-05-13T00:52:33;10.70;99.90
16283;DHT22;8249;48.708;9.030;2023-05-13T00:55:01;10.70;99.90
16283;DHT22;8249;48.708;9.030;2023-05-13T00:57:28;10.70;99.90
16283;DHT22;8249;48.708;9.030;2023-05-13T00:59:56;10.70;99.90
16283;DHT22;8249;48.708;9.030;2023-05-13T01:02:29;10.70;99.90
16283;DHT22;8249;48.708;9.030;2023-05-13T01:05:05;10.70;99.90
16283;DHT22;8249;48.708;9.030;2023-05-13T01:07:38;10.70;99.90
16283;DHT22;8249;48.708;9.030;2023-05-13T01:10:14;10.70;99.90
16283;DHT22;8249;48.708;9.030;2023-05-13T01:12:45;10.70;99.90
16283;DHT22;8249;48.708;9.030;2023-05-13T01:15:14;10.70;99.90
16283;DHT22;8249;48.708;9.030;2023-05-13T01:17:50;10.80;99.90
16283;DHT22;8249;48.708;9.030;2023-05-13T01:20:21;10.80;99.90
16283;DHT22;8249;48.708;9.030;2023-05-13T01:22:49;10.80;99.90
16283;DHT22;8249;48.708;9.030;2023-05-13T01:25:16;10.80;99.90
16283;DHT22;8249;48.708;9.030;2023-05-13T01:27:44;10.70;99.90
16283;DHT22;8249;48.708;9.030;2023-05-13T01:30:13;10.80;99.90
16283;DHT22;8249;48.708;9.030;2023-05-13T01:32:40;10.80;99.90
16283;DHT22;8249;48.708;9.030;2023-05-13T01:35:08;10.80;99.90
16283;DHT22;8249;48.708;9.030;2023-05-13T01:37:40;10.80;99.90
16283;DHT22;8249;48.708;9.030;2023-05-13T01:40:10;10.80;99.90
16283;DHT22;8249;48.708;9.030;2023-05-13T01:42:38;10.80;99.90
16283;DHT22;8249;48.708;9.030;2023-05-13T01:45:06;10.80;99.90
16283;DHT22;8249;48.708;9.030;2023-05-13T01:47:34;10.80;99.90
16283;DHT22;8249;48.708;9.030;2023-05-13T01:50:01;10.80;99.90
16283;DHT22;8249;48.708;9.030;2023-05-13T01:52:28;10.80;99.90
16283;DHT22;8249;48.708;9.030;2023-05-13T01:54:55;10.80;99.90
16283;DHT22;8249;48.708;9.030;2023-05-13T01:57:23;10.80;99.90
16283;DHT22;8249;48.708;9.030;2023-05-13T01:59:50;10.70;99.90
16283;DHT22;8249;48.708;9.030;2023-05-13T02:02:18;10.70;99.90
16283;DHT22;8249;48.708;9.030;2023-05-13T02:04:44;10.60;99.90
16283;DHT22;8249;48.708;9.030;2023-05-13T02:07:11;10.50;99.90
16283;DHT22;8249;48.708;9.030;2023-05-13T02:09:38;10.40;99.90
16283;DHT22;8249;48.708;9.030;2023-05-13T02:12:06;10.40;99.90
16283;DHT22;8249;48.708;9.030;2023-05-13T02:14:35;10.40;99.90
16283;DHT22;8249;48.708;9.030;2023-05-13T02:17:03;10.40;99.90
16283;DHT22;8249;48.708;9.030;2023-05-13T02:19:30;10.30;99.90
16283;DHT22;8249;48.708;9.030;2023-05-13T02:21:57;10.30;99.90
16283;DHT22;8249;48.708;9.030;2023-05-13T02:24:24;10.30;99.90
16283;DHT22;8249;48.708;9.030;2023-05-13T02:26:52;10.30;99.90
16283;DHT22;8249;48.708;9.030;2023-05-13T02:29:20;10.20;99.90
16283;DHT22;8249;48.708;9.030;2023-05-13T02:31:48;10.20;99.90
16283;DHT22;8249;48.708;9.030;2023-05-13T02:34:15;10.10;99.90
16283;DHT22;8249;48.708;9.030;2023-05-13T02:36:42;10.10;99.90
16283;DHT22;8249;48.708;9.030;2023-05-13T02:39:09;10.10;99.90
16283;DHT22;8249;48.708;9.030;2023-05-13T02:41:36;10.10;99.90
16283;DHT22;8249;48.708;9.030;2023-05-13T02:44:03;10.10;99.90
16283;DHT22;8249;48.708;9.030;2023-05-13T02:46:30;10.10;99.90
16283;DHT22;8249;48.708;9.030;2023-05-13T02:48:58;10.10;99.90
16283;DHT22;8249;48.708;9.030;2023-05-13T02:51:28;10.10;99.90
16283;DHT22;8249;48.708;9.030;2023-05-13T02:53:55;10.10;99.90
16283;DHT22;8249;48.708;9.030;2023-05-13T02:56:23;10.10;99.90
16283;DHT22;8249;48.708;9.030;2023-05-13T02:58:50;10.10;99.90
16283;DHT22;8249;48.708;9.030;2023-05-13T03:01:17;10.10;99.90
16283;DHT22;8249;48.708;9.030;2023-05-13T03:03:44;10.10;99.90
16283;DHT22;8249;48.708;9.030;2023-05-13T03:06:12;10.10;99.90
16283;DHT22;8249;48.708;9.030;2023-05-13T03:08:39;10.10;99.90
16283;DHT22;8249;48.708;9.030;2023-05-13T03:11:06;10.20;99.90
16283;DHT22;8249;48.708;9.030;2023-05-13T03:13:33;10.10;99.90
16283;DHT22;8249;48.708;9.030;2023-05-13T03:16:00;10.10;99.90
16283;DHT22;8249;48.708;9.030;2023-05-13T03:18:27;10.00;99.90
16283;DHT22;8249;48.708;9.030;2023-05-13T03:20:56;10.10;99.90
16283;DHT22;8249;48.708;9.030;2023-05-13T03:23:25;10.00;99.90
16283;DHT22;8249;48.708;9.030;2023-05-13T03:25:55;10.00;99.90
16283;DHT22;8249;48.708;9.030;2023-05-13T03:28:22;10.00;99.90
16283;DHT22;8249;48.708;9.030;2023-05-13T03:30:49;10.00;99.90
16283;DHT22;8249;48.708;9.030;2023-05-13T03:33:17;10.00;99.90
16283;DHT22;8249;48.708;9.030;2023-05-13T03:35:45;10.00;99.90
16283;DHT22;8249;48.708;9.030;2023-05-13T03:38:14;10.00;99.90
16283;DHT22;8249;48.708;9.030;2023-05-13T03:40:46;10.00;99.90
16283;DHT22;8249;48.708;9.030;2023-05-13T03:43:13;10.00;99.90
16283;DHT22;8249;48.708;9.030;2023-05-13T03:45:44;9.90;99.90
16283;DHT22;8249;48.708;9.030;2023-05-13T03:48:15;9.90;99.90
16283;DHT22;8249;48.708;9.030;2023-05-13T03:50:42;10.00;99.90
16283;DHT22;8249;48.708;9.030;2023-05-13T03:53:09;10.00;99.90
16283;DHT22;8249;48.708;9.030;2023-05-13T03:55:37;10.00;99.90
16283;DHT22;8249;48.708;9.030;2023-05-13T03:58:12;10.00;99.90
16283;DHT22;8249;48.708;9.030;2023-05-13T04:00:40;10.00;99.90
16283;DHT22;8249;48.708;9.030;2023-05-13T04:03:08;10.00;99.90
16283;DHT22;8249;48.708;9.030;2023-05-13T04:05:35;10.00;99.90
16283;DHT22;8249;48.708;9.030;2023-05-13T04:08:02;10.00;99.90
16283;DHT22;8249;48.708;9.030;2023-05-13T04:10:29;10.00;99.90
16283;DHT22;8249;48.708;9.030;2023-05-13T04:12:56;10.00;99.90
16283;DHT22;8249;48.708;9.030;2023-05-13T04:15:24;10.00;99.90
16283;DHT22;8249;48.708;9.030;2023-05-13T04:17:51;9.90;99.90
16283;DHT22;8249;48.708;9.030;2023-05-13T04:20:18;10.00;99.90
16283;DHT22;8249;48.708;9.030;2023-05-13T04:22:45;10.00;99.90
16283;DHT22;8249;48.708;9.030;2023-05-13T04:25:13;10.00;99.90
16283;DHT22;8249;48.708;9.030;2023-05-13T04:27:40;10.00;99.90
16283;DHT22;8249;48.708;9.030;2023-05-13T04:30:13;10.10;99.90
16283;DHT22;8249;48.708;9.030;2023-05-13T04:32:42;10.10;99.90
16283;DHT22;8249;48.708;9.030;2023-05-13T04:35:10;10.20;99.90
16283;DHT22;8249;48.708;9.030;2023-05-13T04:37:38;10.20;99.90
16283;DHT22;8249;48.708;9.030;2023-05-13T04:40:08;10.30;99.90
16283;DHT22;8249;48.708;9.030;2023-05-13T04:42:35;10.40;99.90
16283;DHT22;8249;48.708;9.030;2023-05-13T04:45:03;10.30;99.90
16283;DHT22;8249;48.708;9.030;2023-05-13T04:47:29;10.30;99.90
16283;DHT22;8249;48.708;9.030;2023-05-13T04:50:01;10.30;99.90
16283;DHT22;8249;48.708;9.030;2023-05-13T04:52:29;10.20;99.90
16283;DHT22;8249;48.708;9.030;2023-05-13T04:54:56;10.30;99.90
16283;DHT22;8249;48.708;9.030;2023-05-13T04:57:23;10.30;99.90
16283;DHT22;8249;48.708;9.030;2023-05-13T04:59:50;10.30;99.90
16283;DHT22;8249;48.708;9.030;2023-05-13T05:02:17;10.30;99.90
16283;DHT22;8249;48.708;9.030;2023-05-13T05:04:44;10.20;99.90
16283;DHT22;8249;48.708;9.030;2023-05-13T05:07:14;10.30;99.90
16283;DHT22;8249;48.708;9.030;2023-05-13T05:09:41;10.20;99.90
16283;DHT22;8249;48.708;9.030;2023-05-13T05:12:09;10.20;99.90
16283;DHT22;8249;48.708;9.030;2023-05-13T05:14:39;10.20;99.90
16283;DHT22;8249;48.708;9.030;2023-05-13T05:17:06;10.20;99.90
16283;DHT22;8249;48.708;9.030;2023-05-13T05:19:33;10.20;99.90
16283;DHT22;8249;48.708;9.030;2023-05-13T05:22:00;10.20;99.90
16283;DHT22;8249;48.708;9.030;2023-05-13T05:24:29;10.20;99.90
16283;DHT22;8249;48.708;9.030;2023-05-13T05:26:56;10.20;99.90
16283;DHT22;8249;48.708;9.030;2023-05-13T05:29:23;10.30;99.90
16283;DHT22;8249;48.708;9.030;2023-05-13T05:31:50;10.30;99.90
16283;DHT22;8249;48.708;9.030;2023-05-13T05:34:17;10.30;99.90
16283;DHT22;8249;48.708;9.030;2023-05-13T05:36:44;10.40;99.90
16283;DHT22;8249;48.708;9.030;2023-05-13T05:39:12;10.40;99.90
16283;DHT22;8249;48.708;9.030;2023-05-13T05:41:40;10.50;99.90
16283;DHT22;8249;48.708;9.030;2023-05-13T05:44:07;10.50;99.90
16283;DHT22;8249;48.708;9.030;2023-05-13T05:46:34;10.50;99.90
16283;DHT22;8249;48.708;9.030;2023-05-13T05:49:01;10.60;99.90
16283;DHT22;8249;48.708;9.030;2023-05-13T05:51:31;10.60;99.90
16283;DHT22;8249;48.708;9.030;2023-05-13T05:54:00;10.60;99.90
16283;DHT22;8249;48.708;9.030;2023-05-13T05:56:28;10.60;99.90
16283;DHT22;8249;48.708;9.030;2023-05-13T05:58:56;10.60;99.90
16283;DHT22;8249;48.708;9.030;2023-05-13T06:01:26;10.70;99.90
16283;DHT22;8249;48.708;9.030;2023-05-13T06:03:52;10.70;99.90
16283;DHT22;8249;48.708;9.030;2023-05-13T06:06:19;10.80;99.90
16283;DHT22;8249;48.708;9.030;2023-05-13T06:08:46;10.80;99.90
16283;DHT22;8249;48.708;9.030;2023-05-13T06:11:13;10.80;99.90
16283;DHT22;8249;48.708;9.030;2023-05-13T06:13:41;10.90;99.90
16283;DHT22;8249;48.708;9.030;2023-05-13T06:16:11;10.90;99.90
16283;DHT22;8249;48.708;9.030;2023-05-13T06:18:37;10.90;99.90
16283;DHT22;8249;48.708;9.030;2023-05-13T06:21:04;11.00;99.90
16283;DHT22;8249;48.708;9.030;2023-05-13T06:23:31;11.00;99.90
16283;DHT22;8249;48.708;9.030;2023-05-13T06:25:58;11.00;99.90
16283;DHT22;8249;48.708;9.030;2023-05-13T06:28:26;11.10;99.90
16283;DHT22;8249;48.708;9.030;2023-05-13T06:30:52;11.10;99.90
16283;DHT22;8249;48.708;9.030;2023-05-13T06:33:21;11.20;99.90
16283;DHT22;8249;48.708;9.030;2023-05-13T06:35:48;11.30;99.90
16283;DHT22;8249;48.708;9.030;2023-05-13T06:38:16;11.30;99.90
16283;DHT22;8249;48.708;9.030;2023-05-13T06:40:44;11.40;99.90
16283;DHT22;8249;48.708;9.030;2023-05-13T06:43:12;11.40;99.90
16283;DHT22;8249;48.708;9.030;2023-05-13T06:45:45;11.40;99.90
16283;DHT22;8249;48.708;9.030;2023-05-13T06:48:14;11.40;99.90
16283;DHT22;8249;48.708;9.030;2023-05-13T06:50:43;11.50;99.90
16283;DHT22;8249;48.708;9.030;2023-05-13T06:53:10;11.50;99.90
16283;DHT22;8249;48.708;9.030;2023-05-13T06:55:37;11.50;99.90
16283;DHT22;8249;48.708;9.030;2023-05-13T06:58:06;11.70;99.90
16283;DHT22;8249;48.708;9.030;2023-05-13T07:00:35;11.90;99.90
16283;DHT22;8249;48.708;9.030;2023-05-13T07:03:02;12.10;99.90
16283;DHT22;8249;48.708;9.030;2023-05-13T07:05:30;12.10;99.90
16283;DHT22;8249;48.708;9.030;2023-05-13T07:07:58;12.10;99.90
16283;DHT22;8249;48.708;9.030;2023-05-13T07:10:26;12.10;99.90
16283;DHT22;8249;48.708;9.030;2023-05-13T07:12:53;12.20;99.90
16283;DHT22;8249;48.708;9.030;2023-05-13T07:15:20;12.30;99.90
16283;DHT22;8249;48.708;9.030;2023-05-13T07:17:48;12.30;99.90
16283;DHT22;8249;48.708;9.030;2023-05-13T07:20:15;12.40;99.90
16283;DHT22;8249;48.708;9.030;2023-05-13T07:22:46;12.50;99.90
16283;DHT22;8249;48.708;9.030;2023-05-13T07:25:15;12.60;99.90
16283;DHT22;8249;48.708;9.030;2023-05-13T07:27:42;12.80;99.90
16283;DHT22;8249;48.708;9.030;2023-05-13T07:30:10;12.80;99.90
16283;DHT22;8249;48.708;9.030;2023-05-13T07:32:37;12.90;99.90
16283;DHT22;8249;48.708;9.030;2023-05-13T07:35:05;13.00;99.90
16283;DHT22;8249;48.708;9.030;2023-05-13T07:37:32;13.10;99.90
16283;DHT22;8249;48.708;9.030;2023-05-13T07:39:59;13.00;99.90
16283;DHT22;8249;48.708;9.030;2023-05-13T07:42:27;13.20;99.90
16283;DHT22;8249;48.708;9.030;2023-05-13T07:44:54;13.30;99.90
16283;DHT22;8249;48.708;9.030;2023-05-13T07:47:21;13.50;99.90
16283;DHT22;8249;48.708;9.030;2023-05-13T07:49:48;13.40;99.90
16283;DHT22;8249;48.708;9.030;2023-05-13T07:52:16;13.60;99.90
16283;DHT22;8249;48.708;9.030;2023-05-13T07:54:43;13.80;99.90
16283;DHT22;8249;48.708;9.030;2023-05-13T07:57:09;14.00;99.90
16283;DHT22;8249;48.708;9.030;2023-05-13T07:59:38;14.10;99.90
16283;DHT22;8249;48.708;9.030;2023-05-13T08:02:05;14.10;99.90
16283;DHT22;8249;48.708;9.030;2023-05-13T08:04:32;14.20;99.90
16283;DHT22;8249;48.708;9.030;2023-05-13T08:07:00;14.30;99.90
16283;DHT22;8249;48.708;9.030;2023-05-13T08:09:27;14.10;99.90
16283;DHT22;8249;48.708;9.030;2023-05-13T08:11:54;14.10;99.90
16283;DHT22;8249;48.708;9.030;2023-05-13T08:14:21;14.20;99.90
16283;DHT22;8249;48.708;9.030;2023-05-13T08:16:49;14.10;99.90
16283;DHT22;8249;48.708;9.030;2023-05-13T08:19:16;14.10;99.90
16283;DHT22;8249;48.708;9.030;2023-05-13T08:21:43;14.00;99.90
16283;DHT22;8249;48.708;9.030;2023-05-13T08:24:10;13.90;99.90
16283;DHT22;8249;48.708;9.030;2023-05-13T08:26:37;13.80;99.90
16283;DHT22;8249;48.708;9.030;2023-05-13T08:29:04;13.80;99.90
16283;DHT22;8249;48.708;9.030;2023-05-13T08:31:31;13.80;99.90
16283;DHT22;8249;48.708;9.030;2023-05-13T08:33:59;13.80;99.90
16283;DHT22;8249;48.708;9.030;2023-05-13T08:36:26;13.90;99.90
16283;DHT22;8249;48.708;9.030;2023-05-13T08:38:53;14.00;99.90
16283;DHT22;8249;48.708;9.030;2023-05-13T08:41:20;14.10;99.90
16283;DHT22;8249;48.708;9.030;2023-05-13T08:43:49;14.10;99.90
16283;DHT22;8249;48.708;9.030;2023-05-13T08:46:17;14.10;99.90
16283;DHT22;8249;48.708;9.030;2023-05-13T08:48:45;14.10;99.90
16283;DHT22;8249;48.708;9.030;2023-05-13T08:51:14;14.00;99.90
16283;DHT22;8249;48.708;9.030;2023-05-13T08:53:42;14.00;99.90
16283;DHT22;8249;48.708;9.030;2023-05-13T08:56:09;14.20;99.90
16283;DHT22;8249;48.708;9.030;2023-05-13T08:58:36;14.30;99.90
16283;DHT22;8249;48.708;9.030;2023-05-13T09:01:04;14.40;99.90
16283;DHT22;8249;48.708;9.030;2023-05-13T09:03:32;14.50;99.90
16283;DHT22;8249;48.708;9.030;2023-05-13T09:06:01;14.50;99.90
16283;DHT22;8249;48.708;9.030;2023-05-13T09:08:29;14.40;99.90
16283;DHT22;8249;48.708;9.030;2023-05-13T09:10:57;14.40;99.90
16283;DHT22;8249;48.708;9.030;2023-05-13T09:13:24;14.30;99.90
16283;DHT22;8249;48.708;9.030;2023-05-13T09:15:51;14.30;99.90
16283;DHT22;8249;48.708;9.030;2023-05-13T09:18:18;14.20;99.90
16283;DHT22;8249;48.708;9.030;2023-05-13T09:20:45;14.10;99.90
16283;DHT22;8249;48.708;9.030;2023-05-13T09:23:12;14.10;99.90
16283;DHT22;8249;48.708;9.030;2023-05-13T09:25:42;14.00;99.90
16283;DHT22;8249;48.708;9.030;2023-05-13T09:28:13;14.10;99.90
16283;DHT22;8249;48.708;9.030;2023-05-13T09:30:40;14.00;99.90
16283;DHT22;8249;48.708;9.030;2023-05-13T09:33:09;14.00;99.90
16283;DHT22;8249;48.708;9.030;2023-05-13T09:35:38;14.00;99.90
16283;DHT22;8249;48.708;9.030;2023-05-13T09:38:13;13.90;99.90
16283;DHT22;8249;48.708;9.030;2023-05-13T09:40:48;13.90;99.90
16283;DHT22;8249;48.708;9.030;2023-05-13T09:43:17;13.90;99.90
16283;DHT22;8249;48.708;9.030;2023-05-13T09:45:44;13.90;99.90
16283;DHT22;8249;48.708;9.030;2023-05-13T09:48:12;13.90;99.90
16283;DHT22;8249;48.708;9.030;2023-05-13T09:50:46;14.00;99.90
16283;DHT22;8249;48.708;9.030;2023-05-13T09:53:14;14.00;99.90
16283;DHT22;8249;48.708;9.030;2023-05-13T09:55:45;14.00;99.90
16283;DHT22;8249;48.708;9.030;2023-05-13T09:58:12;14.10;99.90
16283;DHT22;8249;48.708;9.030;2023-05-13T10:00:40;14.10;99.90
16283;DHT22;8249;48.708;9.030;2023-05-13T10:03:07;14.20;99.90
16283;DHT22;8249;48.708;9.030;2023-05-13T10:05:35;14.20;99.90
16283;DHT22;8249;48.708;9.030;2023-05-13T10:08:02;14.30;99.90
16283;DHT22;8249;48.708;9.030;2023-05-13T10:10:31;14.30;99.90
16283;DHT22;8249;48.708;9.030;2023-05-13T10:13:04;14.50;99.90
16283;DHT22;8249;48.708;9.030;2023-05-13T10:15:33;14.80;99.90
16283;DHT22;8249;48.708;9.030;2023-05-13T10:18:00;14.90;99.90
16283;DHT22;8249;48.708;9.030;2023-05-13T10:20:27;15.00;99.90
16283;DHT22;8249;48.708;9.030;2023-05-13T10:22:55;15.10;99.90
16283;DHT22;8249;48.708;9.030;2023-05-13T10:25:23;15.00;99.90
16283;DHT22;8249;48.708;9.030;2023-05-13T10:27:52;15.20;99.90
16283;DHT22;8249;48.708;9.030;2023-05-13T10:30:24;15.20;99.90
16283;DHT22;8249;48.708;9.030;2023-05-13T10:32:52;15.30;99.90
16283;DHT22;8249;48.708;9.030;2023-05-13T10:35:19;15.30;99.90
16283;DHT22;8249;48.708;9.030;2023-05-13T10:37:55;15.30;99.90
16283;DHT22;8249;48.708;9.030;2023-05-13T10:40:48;15.30;99.90
16283;DHT22;8249;48.708;9.030;2023-05-13T10:43:20;15.50;99.90
16283;DHT22;8249;48.708;9.030;2023-05-13T10:45:50;15.60;99.90
16283;DHT22;8249;48.708;9.030;2023-05-13T10:48:17;15.60;99.90
16283;DHT22;8249;48.708;9.030;2023-05-13T10:50:53;15.50;99.90
16283;DHT22;8249;48.708;9.030;2023-05-13T10:53:22;15.70;99.90
16283;DHT22;8249;48.708;9.030;2023-05-13T10:55:52;15.80;99.90
16283;DHT22;8249;48.708;9.030;2023-05-13T10:58:20;16.10;99.90
16283;DHT22;8249;48.708;9.030;2023-05-13T11:01:12;16.20;99.90
16283;DHT22;8249;48.708;9.030;2023-05-13T11:03:40;16.30;99.90
16283;DHT22;8249;48.708;9.030;2023-05-13T11:06:15;16.20;99.90
16283;DHT22;8249;48.708;9.030;2023-05-13T11:08:43;16.30;99.90
16283;DHT22;8249;48.708;9.030;2023-05-13T11:11:25;16.50;99.90
16283;DHT22;8249;48.708;9.030;2023-05-13T11:13:54;16.60;99.90
16283;DHT22;8249;48.708;9.030;2023-05-13T11:16:22;16.20;99.90
16283;DHT22;8249;48.708;9.030;2023-05-13T11:18:51;16.20;99.90
16283;DHT22;8249;48.708;9.030;2023-05-13T11:21:29;15.90;99.90
16283;DHT22;8249;48.708;9.030;2023-05-13T11:23:57;15.80;99.90
16283;DHT22;8249;48.708;9.030;2023-05-13T11:26:24;15.60;99.90
16283;DHT22;8249;48.708;9.030;2023-05-13T11:28:56;15.50;99.90
16283;DHT22;8249;48.708;9.030;2023-05-13T11:31:26;15.30;99.90
16283;DHT22;8249;48.708;9.030;2023-05-13T11:34:07;15.20;99.90
16283;DHT22;8249;48.708;9.030;2023-05-13T11:36:36;15.10;99.90
16283;DHT22;8249;48.708;9.030;2023-05-13T11:39:11;14.90;99.90
16283;DHT22;8249;48.708;9.030;2023-05-13T11:41:40;14.90;99.90
16283;DHT22;8249;48.708;9.030;2023-05-13T11:44:07;14.90;99.90
16283;DHT22;8249;48.708;9.030;2023-05-13T11:46:37;14.80;99.90
16283;DHT22;8249;48.708;9.030;2023-05-13T11:49:05;14.70;99.90
16283;DHT22;8249;48.708;9.030;2023-05-13T11:51:33;14.70;99.90
16283;DHT22;8249;48.708;9.030;2023-05-13T11:54:01;14.60;99.90
16283;DHT22;8249;48.708;9.030;2023-05-13T11:56:28;14.60;99.90
16283;DHT22;8249;48.708;9.030;2023-05-13T12:01:39;14.40;99.90
16283;DHT22;8249;48.708;9.030;2023-05-13T12:04:06;14.40;99.90
16283;DHT22;8249;48.708;9.030;2023-05-13T12:06:33;14.30;99.90
16283;DHT22;8249;48.708;9.030;2023-05-13T12:09:04;14.30;99.90
16283;DHT22;8249;48.708;9.030;2023-05-13T12:11:31;14.30;99.90
16283;DHT22;8249;48.708;9.030;2023-05-13T12:13:59;14.30;99.90
16283;DHT22;8249;48.708;9.030;2023-05-13T12:16:26;14.30;99.90
16283;DHT22;8249;48.708;9.030;2023-05-13T12:18:58;14.30;99.90
16283;DHT22;8249;48.708;9.030;2023-05-13T12:21:29;14.40;99.90
16283;DHT22;8249;48.708;9.030;2023-05-13T12:23:57;14.50;99.90
16283;DHT22;8249;48.708;9.030;2023-05-13T12:26:24;14.70;99.90
16283;DHT22;8249;48.708;9.030;2023-05-13T12:28:56;14.90;99.90
16283;DHT22;8249;48.708;9.030;2023-05-13T12:31:24;15.00;99.90
16283;DHT22;8249;48.708;9.030;2023-05-13T12:33:51;15.10;99.90
16283;DHT22;8249;48.708;9.030;2023-05-13T12:36:35;15.10;99.90
16283;DHT22;8249;48.708;9.030;2023-05-13T12:39:04;15.20;99.90
16283;DHT22;8249;48.708;9.030;2023-05-13T12:41:33;15.10;99.90
16283;DHT22;8249;48.708;9.030;2023-05-13T12:44:01;15.10;99.90
16283;DHT22;8249;48.708;9.030;2023-05-13T12:46:29;15.10;99.90
16283;DHT22;8249;48.708;9.030;2023-05-13T12:48:58;15.00;99.90
16283;DHT22;8249;48.708;9.030;2023-05-13T12:51:27;14.90;99.90
16283;DHT22;8249;48.708;9.030;2023-05-13T12:53:55;15.00;99.90
16283;DHT22;8249;48.708;9.030;2023-05-13T12:56:23;15.10;99.90
16283;DHT22;8249;48.708;9.030;2023-05-13T12:58:52;15.10;99.90
16283;DHT22;8249;48.708;9.030;2023-05-13T13:01:20;15.10;99.90
16283;DHT22;8249;48.708;9.030;2023-05-13T13:03:47;15.10;99.90
16283;DHT22;8249;48.708;9.030;2023-05-13T13:06:14;15.10;99.90
16283;DHT22;8249;48.708;9.030;2023-05-13T13:08:43;15.20;99.90
16283;DHT22;8249;48.708;9.030;2023-05-13T13:11:10;15.30;99.90
16283;DHT22;8249;48.708;9.030;2023-05-13T13:13:43;15.50;99.90
16283;DHT22;8249;48.708;9.030;2023-05-13T13:16:10;15.50;99.90
16283;DHT22;8249;48.708;9.030;2023-05-13T13:18:37;15.50;99.90
16283;DHT22;8249;48.708;9.030;2023-05-13T13:21:07;15.50;99.90
16283;DHT22;8249;48.708;9.030;2023-05-13T13:23:34;15.60;99.90
16283;DHT22;8249;48.708;9.030;2023-05-13T13:26:03;15.50;99.90
16283;DHT22;8249;48.708;9.030;2023-05-13T13:28:32;15.40;99.90
16283;DHT22;8249;48.708;9.030;2023-05-13T13:31:00;15.40;99.90
16283;DHT22;8249;48.708;9.030;2023-05-13T13:33:27;15.30;99.90
16283;DHT22;8249;48.708;9.030;2023-05-13T13:35:54;15.30;99.90
16283;DHT22;8249;48.708;9.030;2023-05-13T13:38:24;15.30;99.90
16283;DHT22;8249;48.708;9.030;2023-05-13T13:40:51;15.20;99.90
16283;DHT22;8249;48.708;9.030;2023-05-13T13:43:19;15.30;99.90
16283;DHT22;8249;48.708;9.030;2023-05-13T13:45:47;15.50;99.90
16283;DHT22;8249;48.708;9.030;2023-05-13T13:48:14;15.80;99.90
16283;DHT22;8249;48.708;9.030;2023-05-13T13:50:41;16.60;99.90
16283;DHT22;8249;48.708;9.030;2023-05-13T13:53:09;17.30;99.90
16283;DHT22;8249;48.708;9.030;2023-05-13T13:55:44;17.50;99.90
16283;DHT22;8249;48.708;9.030;2023-05-13T13:58:11;17.30;99.90
16283;DHT22;8249;48.708;9.030;2023-05-13T14:00:40;16.90;99.90
16283;DHT22;8249;48.708;9.030;2023-05-13T14:03:07;16.60;99.90
16283;DHT22;8249;48.708;9.030;2023-05-13T14:05:34;16.30;99.90
16283;DHT22;8249;48.708;9.030;2023-05-13T14:08:01;15.90;99.90
16283;DHT22;8249;48.708;9.030;2023-05-13T14:10:28;15.60;99.90
16283;DHT22;8249;48.708;9.030;2023-05-13T14:12:55;15.40;99.90
16283;DHT22;8249;48.708;9.030;2023-05-13T14:15:22;15.20;99.90
16283;DHT22;8249;48.708;9.030;2023-05-13T14:17:54;15.10;99.90
16283;DHT22;8249;48.708;9.030;2023-05-13T14:20:22;15.00;99.90
16283;DHT22;8249;48.708;9.030;2023-05-13T14:22:52;14.90;99.90
16283;DHT22;8249;48.708;9.030;2023-05-13T14:25:19;14.80;99.90
16283;DHT22;8249;48.708;9.030;2023-05-13T14:27:48;14.70;99.90
16283;DHT22;8249;48.708;9.030;2023-05-13T14:30:16;14.60;99.90
16283;DHT22;8249;48.708;9.030;2023-05-13T14:32:43;14.50;99.90
16283;DHT22;8249;48.708;9.030;2023-05-13T14:35:12;14.30;99.90
16283;DHT22;8249;48.708;9.030;2023-05-13T14:37:39;14.30;99.90
16283;DHT22;8249;48.708;9.030;2023-05-13T14:40:07;14.30;99.90
16283;DHT22;8249;48.708;9.030;2023-05-13T14:42:35;14.30;99.90
16283;DHT22;8249;48.708;9.030;2023-05-13T14:45:06;14.30;99.90
16283;DHT22;8249;48.708;9.030;2023-05-13T14:47:33;14.40;99.90
16283;DHT22;8249;48.708;9.030;2023-05-13T14:50:00;14.40;99.90
16283;DHT22;8249;48.708;9.030;2023-05-13T14:52:29;14.50;99.90
16283;DHT22;8249;48.708;9.030;2023-05-13T14:54:56;14.50;99.90
16283;DHT22;8249;48.708;9.030;2023-05-13T14:57:23;14.70;99.90
16283;DHT22;8249;48.708;9.030;2023-05-13T14:59:50;14.70;99.90
16283;DHT22;8249;48.708;9.030;2023-05-13T15:02:17;14.90;99.90
16283;DHT22;8249;48.708;9.030;2023-05-13T15:04:44;15.10;99.90
16283;DHT22;8249;48.708;9.030;2023-05-13T15:07:14;15.40;99.90
16283;DHT22;8249;48.708;9.030;2023-05-13T15:09:42;15.50;99.90
16283;DHT22;8249;48.708;9.030;2023-05-13T15:12:09;15.70;99.90
16283;DHT22;8249;48.708;9.030;2023-05-13T15:14:36;15.70;99.90
16283;DHT22;8249;48.708;9.030;2023-05-13T15:17:04;15.70;99.90
16283;DHT22;8249;48.708;9.030;2023-05-13T15:19:35;15.70;99.90
16283;DHT22;8249;48.708;9.030;2023-05-13T15:22:02;15.80;99.90
16283;DHT22;8249;48.708;9.030;2023-05-13T15:24:29;15.90;99.90
16283;DHT22;8249;48.708;9.030;2023-05-13T15:26:59;15.90;99.90
16283;DHT22;8249;48.708;9.030;2023-05-13T15:29:28;16.10;99.90
16283;DHT22;8249;48.708;9.030;2023-05-13T15:31:55;16.10;99.90
16283;DHT22;8249;48.708;9.030;2023-05-13T15:34:22;16.00;99.90
16283;DHT22;8249;48.708;9.030;2023-05-13T15:36:49;16.00;99.90
16283;DHT22;8249;48.708;9.030;2023-05-13T15:39:19;15.90;99.90
16283;DHT22;8249;48.708;9.030;2023-05-13T15:41:47;15.80;99.90
16283;DHT22;8249;48.708;9.030;2023-05-13T15:44:15;15.60;99.90
16283;DHT22;8249;48.708;9.030;2023-05-13T15:46:42;15.60;99.90
16283;DHT22;8249;48.708;9.030;2023-05-13T15:49:09;15.50;99.90
16283;DHT22;8249;48.708;9.030;2023-05-13T15:51:36;15.50;99.90
16283;DHT22;8249;48.708;9.030;2023-05-13T15:54:03;15.50;99.90
16283;DHT22;8249;48.708;9.030;2023-05-13T15:56:30;15.40;99.90